createdAt,value
2019-03-23T00:01:29.642Z,24.40
2019-03-23T00:04:00.812Z,24.73
2019-03-23T00:06:31.451Z,22.93
2019-03-23T00:09:03.049Z,26.40
2019-03-23T00:11:33.414Z,20.03
2019-03-23T00:14:03.535Z,29.07
2019-03-23T00:16:33.813Z,30.63
2019-03-23T00:19:04.791Z,26.77
2019-03-23T00:21:35.176Z,46.87
2019-03-23T00:24:05.151Z,34.37
2019-03-23T00:26:40.872Z,20.87
2019-03-23T00:29:11.887Z,27.80
2019-03-23T00:31:49.564Z,24.27
2019-03-23T00:34:26.268Z,21.40
2019-03-23T00:36:56.721Z,16.93
2019-03-23T00:39:27.029Z,23.80
2019-03-23T00:41:57.905Z,20.30
2019-03-23T00:44:36.558Z,19.27
2019-03-23T00:47:06.893Z,16.57
2019-03-23T00:49:37.557Z,23.63
2019-03-23T00:52:07.858Z,18.17
2019-03-23T00:54:38.481Z,25.53
2019-03-23T00:57:09.345Z,17.90
2019-03-23T00:59:39.309Z,21.33
2019-03-23T01:02:09.275Z,21.67
2019-03-23T01:04:39.272Z,15.40
2019-03-23T01:07:09.592Z,26.20
2019-03-23T01:09:40.270Z,27.53
2019-03-23T01:12:11.689Z,21.23
2019-03-23T01:14:42.161Z,19.50
2019-03-23T01:17:12.719Z,21.50
2019-03-23T01:19:45.233Z,15.53
2019-03-23T01:22:15.279Z,16.80
2019-03-23T01:24:46.054Z,24.53
2019-03-23T01:27:16.719Z,23.80
2019-03-23T01:29:47.280Z,25.57
2019-03-23T01:32:17.345Z,25.47
2019-03-23T01:34:47.781Z,24.63
2019-03-23T01:37:18.504Z,32.23
2019-03-23T01:39:48.958Z,22.07
2019-03-23T01:42:19.364Z,29.50
2019-03-23T01:44:50.593Z,25.83
2019-03-23T01:47:20.956Z,12.23
2019-03-23T01:49:51.795Z,20.40
2019-03-23T01:52:21.815Z,25.93
2019-03-23T01:54:51.865Z,24.97
2019-03-23T01:57:22.306Z,21.47
2019-03-23T01:59:53.739Z,22.93
2019-03-23T02:02:24.106Z,24.40
2019-03-23T02:04:55.201Z,22.67
2019-03-23T02:07:25.252Z,22.47
2019-03-23T02:09:55.270Z,15.80
2019-03-23T02:12:25.609Z,25.10
2019-03-23T02:14:56.770Z,20.27
2019-03-23T02:17:26.701Z,18.83
2019-03-23T02:19:58.117Z,20.40
2019-03-23T02:22:28.290Z,20.40
2019-03-23T02:24:58.617Z,24.27
2019-03-23T02:27:28.770Z,16.53
2019-03-23T02:29:58.754Z,14.90
2019-03-23T02:32:29.422Z,23.47
2019-03-23T02:35:00.669Z,25.23
2019-03-23T02:37:31.104Z,16.57
2019-03-23T02:40:01.563Z,23.10
2019-03-23T02:42:31.775Z,21.27
2019-03-23T02:45:02.227Z,23.80
2019-03-23T02:47:33.473Z,16.20
2019-03-23T02:50:03.652Z,25.43
2019-03-23T02:52:35.108Z,30.87
2019-03-23T02:55:05.851Z,19.93
2019-03-23T02:57:36.268Z,19.97
2019-03-23T03:00:08.509Z,23.70
2019-03-23T03:02:46.924Z,20.80
2019-03-23T03:05:18.471Z,17.37
2019-03-23T03:07:48.493Z,24.77
2019-03-23T03:10:38.735Z,20.50
2019-03-23T03:13:09.126Z,26.10
2019-03-23T03:15:39.106Z,24.17
2019-03-23T03:18:19.711Z,22.27
2019-03-23T03:20:50.150Z,19.80
2019-03-23T03:23:20.248Z,18.70
2019-03-23T03:25:50.318Z,27.47
2019-03-23T03:28:20.339Z,18.20
2019-03-23T03:30:50.387Z,21.97
2019-03-23T03:33:20.765Z,17.40
2019-03-23T03:35:51.572Z,18.00
2019-03-23T03:38:21.580Z,21.10
2019-03-23T03:40:51.984Z,17.20
2019-03-23T03:43:22.605Z,13.63
2019-03-23T03:45:53.100Z,25.83
2019-03-23T03:48:23.646Z,21.50
2019-03-23T03:50:54.242Z,27.70
2019-03-23T03:53:25.145Z,19.40
2019-03-23T03:55:55.414Z,17.57
2019-03-23T03:58:25.745Z,22.10
2019-03-23T04:00:55.849Z,28.57
2019-03-23T04:03:26.736Z,34.10
2019-03-23T04:05:56.671Z,25.03
2019-03-23T04:08:27.254Z,28.43
2019-03-23T04:10:58.377Z,26.67
2019-03-23T04:13:28.473Z,19.73
2019-03-23T04:15:59.206Z,27.30
2019-03-23T04:18:29.529Z,16.30
2019-03-23T04:20:59.719Z,20.10
2019-03-23T04:23:40.063Z,15.53
2019-03-23T04:26:12.403Z,14.93
2019-03-23T04:28:42.446Z,13.23
2019-03-23T04:31:13.264Z,17.70
2019-03-23T04:33:49.600Z,16.43
2019-03-23T04:36:19.982Z,27.13
2019-03-23T04:38:59.528Z,17.87
2019-03-23T04:41:50.398Z,14.57
2019-03-23T04:44:21.774Z,23.20
2019-03-23T04:46:52.108Z,24.80
2019-03-23T04:49:22.984Z,12.07
2019-03-23T04:51:53.623Z,21.03
2019-03-23T04:54:24.045Z,19.77
2019-03-23T04:56:55.592Z,16.93
2019-03-23T04:59:26.057Z,24.90
2019-03-23T05:01:56.428Z,20.80
2019-03-23T05:04:26.531Z,17.57
2019-03-23T05:06:57.013Z,23.90
2019-03-23T05:09:27.737Z,8.97
2019-03-23T05:11:58.252Z,18.37
2019-03-23T05:14:28.747Z,12.23
2019-03-23T05:16:58.704Z,16.43
2019-03-23T05:19:28.768Z,16.97
2019-03-23T05:22:00.214Z,20.27
2019-03-23T05:24:30.878Z,23.07
2019-03-23T05:27:01.059Z,25.10
2019-03-23T05:29:31.398Z,17.13
2019-03-23T05:32:01.966Z,19.30
2019-03-23T05:34:33.004Z,27.53
2019-03-23T05:37:03.321Z,21.33
2019-03-23T05:39:33.621Z,9.70
2019-03-23T05:42:03.638Z,18.50
2019-03-23T05:44:33.709Z,17.23
2019-03-23T05:47:03.671Z,17.67
2019-03-23T05:49:33.847Z,15.47
2019-03-23T05:52:04.136Z,15.87
2019-03-23T05:54:35.249Z,13.03
2019-03-23T05:57:16.923Z,17.93
2019-03-23T06:00:00.392Z,16.20
2019-03-23T06:02:30.740Z,15.67
2019-03-23T06:05:00.729Z,16.00
2019-03-23T06:07:31.253Z,14.90
2019-03-23T06:10:02.354Z,16.23
2019-03-23T06:12:32.285Z,15.83
2019-03-23T06:15:02.661Z,19.63
2019-03-23T06:17:32.607Z,13.30
2019-03-23T06:20:04.714Z,18.57
2019-03-23T06:22:35.645Z,12.43
2019-03-23T06:25:08.214Z,18.10
2019-03-23T06:27:38.894Z,23.50
2019-03-23T06:30:09.407Z,16.37
2019-03-23T06:32:40.302Z,16.17
2019-03-23T06:35:10.774Z,19.20
2019-03-23T06:37:40.888Z,15.57
2019-03-23T06:40:12.114Z,19.37
2019-03-23T06:42:42.180Z,17.97
2019-03-23T06:45:12.688Z,16.47
2019-03-23T06:47:43.031Z,16.67
2019-03-23T06:50:13.786Z,8.93
2019-03-23T06:52:44.107Z,15.80
2019-03-23T06:55:14.241Z,14.53
2019-03-23T06:57:44.613Z,17.57
2019-03-23T07:00:15.089Z,19.50
2019-03-23T07:02:45.104Z,24.90
2019-03-23T07:05:15.694Z,17.97
2019-03-23T07:07:45.756Z,17.67
2019-03-23T07:10:16.251Z,19.43
2019-03-23T07:12:47.286Z,20.50
2019-03-23T07:15:20.295Z,19.97
2019-03-23T07:17:49.136Z,18.27
2019-03-23T07:20:19.533Z,18.13
2019-03-23T07:22:54.778Z,18.03
2019-03-23T07:25:24.063Z,18.43
2019-03-23T07:27:54.415Z,17.10
2019-03-23T07:30:24.885Z,18.23
2019-03-23T07:32:54.932Z,20.27
2019-03-23T07:35:25.751Z,17.70
2019-03-23T07:37:55.691Z,17.63
2019-03-23T07:40:26.013Z,21.73
2019-03-23T07:42:56.221Z,16.83
2019-03-23T07:45:26.277Z,17.90
2019-03-23T07:47:56.409Z,19.10
2019-03-23T07:50:26.572Z,22.23
2019-03-23T07:52:56.762Z,14.97
2019-03-23T07:55:27.175Z,15.80
2019-03-23T07:57:57.425Z,19.70
2019-03-23T08:00:27.528Z,21.00
2019-03-23T08:02:59.633Z,19.43
2019-03-23T08:05:29.761Z,20.27
2019-03-23T08:08:00.034Z,15.43
2019-03-23T08:10:31.696Z,14.93
2019-03-23T08:13:02.964Z,17.73
2019-03-23T08:15:33.139Z,20.13
2019-03-23T08:18:03.225Z,12.57
2019-03-23T08:20:40.530Z,17.67
2019-03-23T08:23:11.063Z,15.50
2019-03-23T08:25:42.227Z,15.87
2019-03-23T08:28:33.583Z,12.60
2019-03-23T08:31:00.323Z,18.00
2019-03-23T08:33:30.915Z,8.27
2019-03-23T08:36:01.377Z,15.03
2019-03-23T08:38:31.610Z,15.90
2019-03-23T08:41:01.708Z,16.73
2019-03-23T08:43:32.555Z,18.53
2019-03-23T08:46:15.263Z,19.67
2019-03-23T08:48:46.314Z,23.27
2019-03-23T08:51:17.213Z,17.07
2019-03-23T08:53:47.786Z,15.87
2019-03-23T08:56:18.097Z,16.67
2019-03-23T08:58:46.243Z,15.00
2019-03-23T09:01:16.626Z,13.83
2019-03-23T09:03:52.314Z,18.57
2019-03-23T09:06:19.238Z,19.30
2019-03-23T09:08:49.679Z,17.00
2019-03-23T09:11:20.849Z,12.90
2019-03-23T09:13:51.301Z,16.90
2019-03-23T09:16:21.633Z,14.77
2019-03-23T09:18:52.166Z,17.43
2019-03-23T09:21:22.809Z,16.43
2019-03-23T09:23:57.734Z,15.23
2019-03-23T09:26:28.276Z,13.20
2019-03-23T09:28:59.506Z,17.10
2019-03-23T09:31:30.257Z,17.90
2019-03-23T09:34:00.970Z,13.67
2019-03-23T09:36:31.550Z,14.57
2019-03-23T09:39:02.229Z,15.90
2019-03-23T09:41:32.420Z,23.03
2019-03-23T09:44:02.898Z,14.60
2019-03-23T09:46:33.321Z,18.97
2019-03-23T09:49:08.050Z,16.83
2019-03-23T09:51:38.467Z,13.50
2019-03-23T09:54:08.549Z,13.83
2019-03-23T09:56:39.102Z,18.80
2019-03-23T09:59:09.780Z,24.37
2019-03-23T10:01:48.401Z,19.70
2019-03-23T10:04:18.685Z,15.97
2019-03-23T10:06:48.677Z,12.77
2019-03-23T10:09:19.584Z,17.20
2019-03-23T10:11:49.699Z,14.90
2019-03-23T10:14:20.030Z,14.97
2019-03-23T10:16:51.135Z,17.03
2019-03-23T10:19:23.281Z,15.33
2019-03-23T10:21:54.272Z,14.77
2019-03-23T10:24:24.799Z,14.83
2019-03-23T10:26:55.776Z,15.43
2019-03-23T10:29:26.114Z,21.97
2019-03-23T10:31:56.159Z,17.67
2019-03-23T10:34:26.574Z,17.90
2019-03-23T10:36:57.512Z,14.90
2019-03-23T10:39:27.609Z,25.87
2019-03-23T10:41:58.396Z,15.33
2019-03-23T10:44:29.211Z,25.67
2019-03-23T10:46:59.666Z,22.60
2019-03-23T10:49:30.073Z,27.77
2019-03-23T10:52:00.785Z,16.97
2019-03-23T10:54:31.230Z,23.07
2019-03-23T10:57:01.334Z,14.43
2019-03-23T10:59:31.918Z,19.93
2019-03-23T11:02:02.048Z,17.93
2019-03-23T11:04:32.347Z,18.90
2019-03-23T11:07:03.130Z,15.70
2019-03-23T11:09:33.432Z,17.97
2019-03-23T11:12:03.718Z,16.07
2019-03-23T11:14:33.923Z,22.40
2019-03-23T11:17:04.450Z,10.93
2019-03-23T11:19:34.784Z,21.03
2019-03-23T11:22:05.279Z,17.00
2019-03-23T11:24:35.390Z,27.27
2019-03-23T11:27:06.586Z,20.37
2019-03-23T11:29:38.749Z,22.03
2019-03-23T11:32:09.395Z,22.77
2019-03-23T11:34:39.973Z,18.57
2019-03-23T11:37:10.504Z,17.93
2019-03-23T11:39:40.982Z,16.23
2019-03-23T11:42:11.040Z,23.17
2019-03-23T11:44:41.032Z,20.87
2019-03-23T11:47:11.139Z,16.67
2019-03-23T11:49:41.662Z,27.70
2019-03-23T11:52:12.137Z,19.00
2019-03-23T11:54:43.421Z,28.77
2019-03-23T11:57:13.767Z,16.87
2019-03-23T11:59:43.736Z,19.90
2019-03-23T12:02:16.795Z,27.47
2019-03-23T12:04:47.092Z,18.60
2019-03-23T12:07:17.520Z,14.97
2019-03-23T12:09:47.579Z,14.53
2019-03-23T12:12:18.871Z,20.33
2019-03-23T12:14:49.180Z,19.53
2019-03-23T12:17:19.614Z,14.40
2019-03-23T12:19:49.585Z,28.77
2019-03-23T12:22:25.693Z,24.30
2019-03-23T12:24:56.268Z,13.43
2019-03-23T12:27:26.276Z,25.80
2019-03-23T12:30:06.552Z,19.90
2019-03-23T12:32:28.284Z,27.57
2019-03-23T12:34:58.675Z,24.37
2019-03-23T12:37:28.910Z,23.40
2019-03-23T12:40:00.454Z,23.07
2019-03-23T12:42:30.900Z,20.80
2019-03-23T12:45:01.620Z,29.17
2019-03-23T12:47:31.651Z,23.37
2019-03-23T12:50:01.925Z,24.53
2019-03-23T12:52:34.866Z,30.80
2019-03-23T12:55:05.823Z,18.47
2019-03-23T12:57:36.596Z,17.03
2019-03-23T13:00:07.716Z,24.77
2019-03-23T13:02:38.097Z,17.17
2019-03-23T13:05:09.774Z,18.20
2019-03-23T13:07:40.914Z,22.10
2019-03-23T13:10:18.805Z,15.50
2019-03-23T13:12:49.336Z,16.83
2019-03-23T13:15:19.538Z,14.10
2019-03-23T13:18:03.728Z,11.60
2019-03-23T13:23:05.581Z,11.37
2019-03-23T13:25:35.840Z,11.10
2019-03-23T13:28:06.545Z,11.23
2019-03-23T13:30:39.736Z,9.10
2019-03-23T13:33:57.220Z,4.97
2019-03-23T13:36:28.350Z,4.27
2019-03-23T13:38:58.884Z,3.70
2019-03-23T13:41:29.775Z,3.67
2019-03-23T13:44:01.548Z,2.80
2019-03-23T13:46:31.970Z,3.20
2019-03-23T13:49:02.442Z,3.33
2019-03-23T13:51:32.958Z,2.73
2019-03-23T13:54:03.452Z,3.10
2019-03-23T13:56:33.612Z,2.57
2019-03-23T13:59:05.999Z,2.20
2019-03-23T14:01:36.529Z,2.33
2019-03-23T14:04:06.587Z,1.40
2019-03-23T14:06:37.295Z,1.77
2019-03-23T14:09:08.762Z,3.17
2019-03-23T14:11:40.662Z,2.60
2019-03-23T14:14:14.375Z,2.90
2019-03-23T14:16:44.719Z,2.03
2019-03-23T14:19:14.934Z,2.63
2019-03-23T14:21:45.228Z,2.00
2019-03-23T14:24:15.804Z,2.80
2019-03-23T14:26:45.976Z,2.30
2019-03-23T14:29:16.779Z,1.77
2019-03-23T14:31:47.954Z,2.83
2019-03-23T14:34:18.602Z,2.77
2019-03-23T14:36:49.551Z,2.63
2019-03-23T14:39:20.116Z,3.40
2019-03-23T14:41:50.736Z,2.30
2019-03-23T14:44:21.306Z,2.43
2019-03-23T14:46:52.392Z,1.87
2019-03-23T14:49:23.490Z,3.07
2019-03-23T14:51:55.276Z,2.50
2019-03-23T14:54:25.563Z,2.93
2019-03-23T14:56:56.090Z,2.20
2019-03-23T14:59:26.664Z,2.47
2019-03-23T15:01:57.301Z,2.73
2019-03-23T15:04:27.591Z,1.60
2019-03-23T15:06:57.957Z,2.50
2019-03-23T15:09:28.484Z,2.47
2019-03-23T15:11:59.701Z,2.40
2019-03-23T15:14:30.111Z,3.10
2019-03-23T15:17:01.840Z,2.10
2019-03-23T15:19:32.298Z,2.17
2019-03-23T15:22:02.333Z,1.97
2019-03-23T15:24:33.038Z,2.30
2019-03-23T15:27:22.694Z,1.13
2019-03-23T15:29:53.764Z,3.30
2019-03-23T15:32:24.210Z,2.67
2019-03-23T15:34:54.396Z,2.30
2019-03-23T15:37:24.822Z,3.23
2019-03-23T15:39:55.057Z,2.93
2019-03-23T15:42:25.304Z,2.40
2019-03-23T15:44:55.632Z,2.57
2019-03-23T15:47:25.712Z,2.23
2019-03-23T15:49:55.903Z,2.23
2019-03-23T15:52:34.644Z,3.00
2019-03-23T15:55:05.581Z,3.43
2019-03-23T15:57:35.721Z,1.97
2019-03-23T16:00:07.245Z,2.77
2019-03-23T16:02:37.688Z,3.10
2019-03-23T16:05:10.182Z,2.23
2019-03-23T16:07:42.230Z,4.03
2019-03-23T16:10:12.926Z,2.57
2019-03-23T16:12:43.610Z,3.43
2019-03-23T16:15:14.016Z,3.87
2019-03-23T16:17:44.185Z,2.40
2019-03-23T16:20:14.822Z,2.30
2019-03-23T16:22:51.140Z,3.53
2019-03-23T16:25:21.502Z,3.37
2019-03-23T16:27:51.761Z,2.97
2019-03-23T16:30:31.214Z,3.23
2019-03-23T16:33:01.546Z,2.80
2019-03-23T16:35:32.288Z,2.70
2019-03-23T16:38:02.644Z,2.80
2019-03-23T16:40:33.254Z,2.20
2019-03-23T16:43:06.188Z,2.30
2019-03-23T16:45:35.551Z,3.20
2019-03-23T16:48:06.102Z,3.30
2019-03-23T16:50:36.158Z,3.03
2019-03-23T16:53:06.171Z,3.23
2019-03-23T16:55:36.158Z,1.90
2019-03-23T16:58:15.785Z,2.07
2019-03-23T17:00:46.412Z,3.30
2019-03-23T17:03:16.702Z,4.07
2019-03-23T17:05:46.825Z,3.30
2019-03-23T17:08:17.580Z,4.30
2019-03-23T17:10:48.203Z,3.27
2019-03-23T17:13:34.783Z,2.43
2019-03-23T17:16:05.966Z,4.47
2019-03-23T17:18:38.176Z,3.10
2019-03-23T17:21:08.780Z,2.87
2019-03-23T17:23:39.300Z,2.37
2019-03-23T17:26:10.031Z,2.73
2019-03-23T17:28:40.335Z,2.87
2019-03-23T17:31:12.112Z,2.20
2019-03-23T17:33:48.220Z,2.90
2019-03-23T17:36:22.607Z,3.40
2019-03-23T17:38:53.195Z,2.53
2019-03-23T17:41:24.580Z,2.23
2019-03-23T17:43:54.637Z,2.83
2019-03-23T17:46:27.782Z,2.00
2019-03-23T17:48:58.393Z,3.40
2019-03-23T17:51:30.570Z,3.50
2019-03-23T17:54:02.691Z,2.60
2019-03-23T17:56:32.949Z,2.80
2019-03-23T17:59:05.238Z,3.00
2019-03-23T18:01:35.491Z,2.87
2019-03-23T18:04:06.339Z,3.00
2019-03-23T18:06:37.615Z,2.27
2019-03-23T18:09:09.257Z,2.10
2019-03-23T18:11:41.568Z,2.80
2019-03-23T18:14:12.338Z,2.20
2019-03-23T18:16:43.134Z,2.30
2019-03-23T18:19:13.138Z,2.07
2019-03-23T18:21:43.933Z,2.53
2019-03-23T18:24:14.803Z,1.90
2019-03-23T18:26:44.893Z,1.83
2019-03-23T18:29:14.974Z,2.87
2019-03-23T18:31:45.657Z,2.73
2019-03-23T18:34:16.312Z,2.33
2019-03-23T18:36:47.663Z,1.80
2019-03-23T18:39:27.077Z,3.50
2019-03-23T18:42:08.065Z,2.20
2019-03-23T18:44:38.849Z,3.20
2019-03-23T18:47:09.299Z,3.00
2019-03-23T18:49:40.460Z,2.07
2019-03-23T18:52:11.523Z,4.47
2019-03-23T18:54:43.379Z,2.17
2019-03-23T18:57:13.493Z,3.00
2019-03-23T18:59:49.646Z,3.20
2019-03-23T19:02:21.333Z,3.03
2019-03-23T19:04:51.795Z,3.40
2019-03-23T19:07:23.210Z,3.43
2019-03-23T19:09:54.200Z,3.87
2019-03-23T19:12:32.091Z,2.63
2019-03-23T19:15:03.584Z,4.40
2019-03-23T19:17:46.208Z,3.47
2019-03-23T19:21:10.208Z,3.00
2019-03-23T19:24:39.300Z,2.17
2019-03-23T19:27:11.334Z,2.20
2019-03-23T19:29:44.475Z,2.07
2019-03-23T19:32:17.905Z,2.47
2019-03-23T19:34:48.843Z,2.57
2019-03-23T19:37:19.203Z,2.57
2019-03-23T19:39:50.477Z,1.97
2019-03-23T19:42:21.862Z,1.90
2019-03-23T19:44:52.345Z,2.23
2019-03-23T19:47:24.776Z,2.60
2019-03-23T19:50:03.334Z,2.30
2019-03-23T19:52:46.770Z,2.23
2019-03-23T19:55:16.988Z,2.80
2019-03-23T19:57:47.192Z,1.93
2019-03-23T20:00:17.963Z,2.97
2019-03-23T20:02:48.446Z,2.57
2019-03-23T20:05:18.581Z,2.47
2019-03-23T20:07:49.017Z,2.47
2019-03-23T20:10:19.347Z,3.60
2019-03-23T20:12:49.993Z,2.73
2019-03-23T20:15:20.643Z,4.00
2019-03-23T20:17:51.114Z,2.90
2019-03-23T20:20:22.277Z,2.63
2019-03-23T20:22:53.123Z,3.20
2019-03-23T20:25:24.619Z,2.60
2019-03-23T20:27:54.949Z,2.77
2019-03-23T20:30:26.374Z,2.40
2019-03-23T20:32:56.718Z,2.60
2019-03-23T20:35:26.863Z,2.23
2019-03-23T20:38:02.141Z,2.57
2019-03-23T20:40:33.740Z,2.57
2019-03-23T20:43:08.456Z,2.60
2019-03-23T20:45:39.120Z,3.37
2019-03-23T20:48:09.704Z,2.53
2019-03-23T20:50:43.147Z,3.20
2019-03-23T20:53:16.621Z,2.50
2019-03-23T20:55:47.178Z,3.20
2019-03-23T20:58:18.162Z,2.43
2019-03-23T21:00:49.797Z,2.67
2019-03-23T21:03:24.744Z,2.43
2019-03-23T21:05:55.317Z,2.60
2019-03-23T21:08:26.934Z,2.27
2019-03-23T21:10:57.241Z,2.47
2019-03-23T21:13:29.013Z,2.60
2019-03-23T21:16:01.890Z,2.23
2019-03-23T21:18:40.154Z,2.67
2019-03-23T21:21:20.277Z,2.40
2019-03-23T21:23:52.134Z,1.83
2019-03-23T21:26:23.954Z,2.80
2019-03-23T21:28:54.321Z,2.37
2019-03-23T21:31:24.881Z,2.30
2019-03-23T21:33:55.039Z,2.73
2019-03-23T21:36:29.439Z,1.80
2019-03-23T21:39:07.528Z,1.60
2019-03-23T21:41:38.866Z,2.43
2019-03-23T21:44:08.987Z,2.60
2019-03-23T21:46:48.141Z,1.80
2019-03-23T21:49:19.899Z,2.33
2019-03-23T21:51:51.857Z,2.43
2019-03-23T21:54:22.503Z,2.40
2019-03-23T21:56:53.175Z,1.80
2019-03-23T21:59:26.097Z,1.90
2019-03-23T22:01:56.319Z,1.87
2019-03-23T22:04:35.699Z,2.47
2019-03-23T22:07:06.462Z,2.03
2019-03-23T22:09:37.641Z,2.37
2019-03-23T22:12:08.546Z,2.43
2019-03-23T22:14:48.844Z,2.27
2019-03-23T22:17:21.803Z,2.30
2019-03-23T22:19:52.876Z,2.57
2019-03-23T22:22:23.287Z,2.07
2019-03-23T22:24:54.197Z,2.13
2019-03-23T22:27:24.636Z,2.40
2019-03-23T22:29:55.371Z,2.13
2019-03-23T22:32:26.105Z,2.07
2019-03-23T22:34:57.831Z,2.07
2019-03-23T22:37:28.047Z,2.27
2019-03-23T22:39:59.749Z,1.53
2019-03-23T22:42:31.887Z,2.07
2019-03-23T22:45:03.023Z,1.77
2019-03-23T22:47:33.664Z,2.53
2019-03-23T22:50:04.324Z,1.83
2019-03-23T22:52:35.345Z,2.37
2019-03-23T22:55:09.851Z,2.87
2019-03-23T22:57:41.159Z,1.47
2019-03-23T23:00:14.072Z,1.90
2019-03-23T23:02:44.769Z,1.77
2019-03-23T23:05:15.478Z,2.00
2019-03-23T23:07:45.912Z,1.60
2019-03-23T23:10:16.475Z,1.73
2019-03-23T23:12:48.149Z,1.90
2019-03-23T23:15:18.537Z,1.97
2019-03-23T23:17:48.566Z,1.93
2019-03-23T23:20:19.245Z,1.43
2019-03-23T23:22:50.059Z,1.73
2019-03-23T23:25:20.280Z,2.00
2019-03-23T23:27:50.608Z,1.60
2019-03-23T23:30:21.011Z,1.80
2019-03-23T23:32:51.175Z,1.63
2019-03-23T23:35:21.916Z,2.57
2019-03-23T23:37:52.017Z,1.47
2019-03-23T23:40:22.479Z,1.70
2019-03-23T23:42:53.203Z,2.07
2019-03-23T23:45:23.844Z,1.70
2019-03-23T23:47:54.639Z,1.43
2019-03-23T23:50:24.969Z,1.73
2019-03-23T23:52:55.897Z,1.60
2019-03-23T23:55:26.388Z,1.63
2019-03-23T23:57:57.534Z,1.93
